sensor_id;sensor_type;location;lat;lon;timestamp;temperature;humidity
27978;DHT22;15314;49.248;6.968;2023-05-23T00:00:19;16.70;99.90
27978;DHT22;15314;49.248;6.968;2023-05-23T00:01:20;16.70;99.90
27978;DHT22;15314;49.248;6.968;2023-05-23T00:02:22;16.70;99.90
27978;DHT22;15314;49.248;6.968;2023-05-23T00:03:22;16.70;99.90
27978;DHT22;15314;49.248;6.968;2023-05-23T00:04:23;16.70;99.90
27978;DHT22;15314;49.248;6.968;2023-05-23T00:05:26;16.70;99.90
27978;DHT22;15314;49.248;6.968;2023-05-23T00:06:26;16.70;99.90
27978;DHT22;15314;49.248;6.968;2023-05-23T00:07:27;16.60;99.90
27978;DHT22;15314;49.248;6.968;2023-05-23T00:08:27;16.60;99.90
27978;DHT22;15314;49.248;6.968;2023-05-23T00:09:28;16.60;99.90
27978;DHT22;15314;49.248;6.968;2023-05-23T00:10:29;16.50;99.90
27978;DHT22;15314;49.248;6.968;2023-05-23T00:11:30;16.50;99.90
27978;DHT22;15314;49.248;6.968;2023-05-23T00:12:31;16.40;99.90
27978;DHT22;15314;49.248;6.968;2023-05-23T00:13:32;16.40;99.90
27978;DHT22;15314;49.248;6.968;2023-05-23T00:14:34;16.40;99.90
27978;DHT22;15314;49.248;6.968;2023-05-23T00:15:34;16.40;99.90
27978;DHT22;15314;49.248;6.968;2023-05-23T00:16:37;16.40;99.90
27978;DHT22;15314;49.248;6.968;2023-05-23T00:17:40;16.40;99.90
27978;DHT22;15314;49.248;6.968;2023-05-23T00:18:41;16.40;99.90
27978;DHT22;15314;49.248;6.968;2023-05-23T00:19:44;16.30;99.90
27978;DHT22;15314;49.248;6.968;2023-05-23T00:20:45;16.30;99.90
27978;DHT22;15314;49.248;6.968;2023-05-23T00:21:47;16.40;99.90
27978;DHT22;15314;49.248;6.968;2023-05-23T00:22:48;16.40;99.90
27978;DHT22;15314;49.248;6.968;2023-05-23T00:23:49;16.40;99.90
27978;DHT22;15314;49.248;6.968;2023-05-23T00:24:49;16.40;99.90
27978;DHT22;15314;49.248;6.968;2023-05-23T00:25:50;16.50;99.90
27978;DHT22;15314;49.248;6.968;2023-05-23T00:26:52;16.50;99.90
27978;DHT22;15314;49.248;6.968;2023-05-23T00:27:52;16.50;99.90
27978;DHT22;15314;49.248;6.968;2023-05-23T00:28:53;16.50;99.90
27978;DHT22;15314;49.248;6.968;2023-05-23T00:29:55;16.50;99.90
27978;DHT22;15314;49.248;6.968;2023-05-23T00:30:56;16.40;99.90
27978;DHT22;15314;49.248;6.968;2023-05-23T00:31:56;16.40;99.90
27978;DHT22;15314;49.248;6.968;2023-05-23T00:32:57;16.40;99.90
27978;DHT22;15314;49.248;6.968;2023-05-23T00:33:58;16.30;99.90
27978;DHT22;15314;49.248;6.968;2023-05-23T00:34:59;16.30;99.90
27978;DHT22;15314;49.248;6.968;2023-05-23T00:35:59;16.20;99.90
27978;DHT22;15314;49.248;6.968;2023-05-23T00:37:00;16.20;99.90
27978;DHT22;15314;49.248;6.968;2023-05-23T00:38:01;16.20;99.90
27978;DHT22;15314;49.248;6.968;2023-05-23T00:39:02;16.20;99.90
27978;DHT22;15314;49.248;6.968;2023-05-23T00:40:04;16.20;99.90
27978;DHT22;15314;49.248;6.968;2023-05-23T00:41:05;16.20;99.90
27978;DHT22;15314;49.248;6.968;2023-05-23T00:42:06;16.30;99.90
27978;DHT22;15314;49.248;6.968;2023-05-23T00:43:07;16.20;99.90
27978;DHT22;15314;49.248;6.968;2023-05-23T00:44:08;16.20;99.90
27978;DHT22;15314;49.248;6.968;2023-05-23T00:45:09;16.10;99.90
27978;DHT22;15314;49.248;6.968;2023-05-23T00:46:12;16.20;99.90
27978;DHT22;15314;49.248;6.968;2023-05-23T00:47:13;16.10;99.90
27978;DHT22;15314;49.248;6.968;2023-05-23T00:48:14;16.10;99.90
27978;DHT22;15314;49.248;6.968;2023-05-23T00:49:15;16.10;99.90
27978;DHT22;15314;49.248;6.968;2023-05-23T00:50:19;16.10;99.90
27978;DHT22;15314;49.248;6.968;2023-05-23T00:51:20;16.10;99.90
27978;DHT22;15314;49.248;6.968;2023-05-23T00:52:21;16.10;99.90
27978;DHT22;15314;49.248;6.968;2023-05-23T00:53:22;16.10;99.90
27978;DHT22;15314;49.248;6.968;2023-05-23T00:54:25;16.10;99.90
27978;DHT22;15314;49.248;6.968;2023-05-23T00:55:27;16.10;99.90
27978;DHT22;15314;49.248;6.968;2023-05-23T00:56:29;16.10;99.90
27978;DHT22;15314;49.248;6.968;2023-05-23T00:57:30;16.10;99.90
27978;DHT22;15314;49.248;6.968;2023-05-23T00:58:31;16.10;99.90
27978;DHT22;15314;49.248;6.968;2023-05-23T00:59:32;16.10;99.90
27978;DHT22;15314;49.248;6.968;2023-05-23T01:00:35;16.00;99.90
27978;DHT22;15314;49.248;6.968;2023-05-23T01:01:38;16.00;99.90
27978;DHT22;15314;49.248;6.968;2023-05-23T01:02:43;16.00;99.90
27978;DHT22;15314;49.248;6.968;2023-05-23T01:03:44;16.00;99.90
27978;DHT22;15314;49.248;6.968;2023-05-23T01:04:48;16.00;99.90
27978;DHT22;15314;49.248;6.968;2023-05-23T01:05:56;16.00;99.90
27978;DHT22;15314;49.248;6.968;2023-05-23T01:06:56;16.00;99.90
27978;DHT22;15314;49.248;6.968;2023-05-23T01:07:57;16.00;99.90
27978;DHT22;15314;49.248;6.968;2023-05-23T01:08:58;15.90;99.90
27978;DHT22;15314;49.248;6.968;2023-05-23T01:10:02;15.90;99.90
27978;DHT22;15314;49.248;6.968;2023-05-23T01:11:16;15.90;99.90
27978;DHT22;15314;49.248;6.968;2023-05-23T01:12:45;15.90;99.90
27978;DHT22;15314;49.248;6.968;2023-05-23T01:14:06;15.90;99.90
27978;DHT22;15314;49.248;6.968;2023-05-23T01:15:17;15.90;99.90
27978;DHT22;15314;49.248;6.968;2023-05-23T01:17:49;15.90;99.90
27978;DHT22;15314;49.248;6.968;2023-05-23T01:18:58;15.90;99.90
27978;DHT22;15314;49.248;6.968;2023-05-23T01:20:08;15.90;99.90
27978;DHT22;15314;49.248;6.968;2023-05-23T01:21:14;15.90;99.90
27978;DHT22;15314;49.248;6.968;2023-05-23T01:24:58;15.80;99.90
27978;DHT22;15314;49.248;6.968;2023-05-23T01:27:50;15.80;99.90
27978;DHT22;15314;49.248;6.968;2023-05-23T01:28:59;15.80;99.90
27978;DHT22;15314;49.248;6.968;2023-05-23T01:30:07;15.80;99.90
27978;DHT22;15314;49.248;6.968;2023-05-23T01:31:09;15.70;99.90
27978;DHT22;15314;49.248;6.968;2023-05-23T01:32:11;15.70;99.90
27978;DHT22;15314;49.248;6.968;2023-05-23T01:33:15;15.80;99.90
27978;DHT22;15314;49.248;6.968;2023-05-23T01:34:18;15.80;99.90
27978;DHT22;15314;49.248;6.968;2023-05-23T01:35:24;15.80;99.90
27978;DHT22;15314;49.248;6.968;2023-05-23T01:36:26;15.70;99.90
27978;DHT22;15314;49.248;6.968;2023-05-23T01:37:27;15.70;99.90
27978;DHT22;15314;49.248;6.968;2023-05-23T01:38:29;15.70;99.90
27978;DHT22;15314;49.248;6.968;2023-05-23T01:39:30;15.70;99.90
27978;DHT22;15314;49.248;6.968;2023-05-23T01:40:30;15.70;99.90
27978;DHT22;15314;49.248;6.968;2023-05-23T01:41:31;15.70;99.90
27978;DHT22;15314;49.248;6.968;2023-05-23T01:42:31;15.70;99.90
27978;DHT22;15314;49.248;6.968;2023-05-23T01:43:32;15.70;99.90
27978;DHT22;15314;49.248;6.968;2023-05-23T01:44:34;15.70;99.90
27978;DHT22;15314;49.248;6.968;2023-05-23T01:45:35;15.80;99.90
27978;DHT22;15314;49.248;6.968;2023-05-23T01:46:36;15.80;99.90
27978;DHT22;15314;49.248;6.968;2023-05-23T01:47:41;15.80;99.90
27978;DHT22;15314;49.248;6.968;2023-05-23T01:48:43;15.70;99.90
27978;DHT22;15314;49.248;6.968;2023-05-23T01:49:45;15.70;99.90
27978;DHT22;15314;49.248;6.968;2023-05-23T01:50:46;15.70;99.90
27978;DHT22;15314;49.248;6.968;2023-05-23T01:51:47;15.70;99.90
27978;DHT22;15314;49.248;6.968;2023-05-23T01:52:48;15.70;99.90
27978;DHT22;15314;49.248;6.968;2023-05-23T01:53:50;15.70;99.90
27978;DHT22;15314;49.248;6.968;2023-05-23T01:54:51;15.70;99.90
27978;DHT22;15314;49.248;6.968;2023-05-23T01:55:52;15.70;99.90
27978;DHT22;15314;49.248;6.968;2023-05-23T01:56:54;15.60;99.90
27978;DHT22;15314;49.248;6.968;2023-05-23T01:57:56;15.60;99.90
27978;DHT22;15314;49.248;6.968;2023-05-23T01:58:57;15.60;99.90
27978;DHT22;15314;49.248;6.968;2023-05-23T01:59:58;15.60;99.90
27978;DHT22;15314;49.248;6.968;2023-05-23T02:00:59;15.60;99.90
27978;DHT22;15314;49.248;6.968;2023-05-23T02:02:00;15.60;99.90
27978;DHT22;15314;49.248;6.968;2023-05-23T02:03:00;15.60;99.90
27978;DHT22;15314;49.248;6.968;2023-05-23T02:04:02;15.60;99.90
27978;DHT22;15314;49.248;6.968;2023-05-23T02:05:03;15.60;99.90
27978;DHT22;15314;49.248;6.968;2023-05-23T02:06:04;15.70;99.90
27978;DHT22;15314;49.248;6.968;2023-05-23T02:07:05;15.70;99.90
27978;DHT22;15314;49.248;6.968;2023-05-23T02:08:06;15.70;99.90
27978;DHT22;15314;49.248;6.968;2023-05-23T02:09:07;15.70;99.90
27978;DHT22;15314;49.248;6.968;2023-05-23T02:10:09;15.70;99.90
27978;DHT22;15314;49.248;6.968;2023-05-23T02:11:09;15.70;99.90
27978;DHT22;15314;49.248;6.968;2023-05-23T02:12:10;15.70;99.90
27978;DHT22;15314;49.248;6.968;2023-05-23T02:13:11;15.60;99.90
27978;DHT22;15314;49.248;6.968;2023-05-23T02:14:11;15.60;99.90
27978;DHT22;15314;49.248;6.968;2023-05-23T02:15:12;15.60;99.90
27978;DHT22;15314;49.248;6.968;2023-05-23T02:16:13;15.50;99.90
27978;DHT22;15314;49.248;6.968;2023-05-23T02:17:13;15.50;99.90
27978;DHT22;15314;49.248;6.968;2023-05-23T02:18:16;15.50;99.90
27978;DHT22;15314;49.248;6.968;2023-05-23T02:19:17;15.60;99.90
27978;DHT22;15314;49.248;6.968;2023-05-23T02:20:18;15.60;99.90
27978;DHT22;15314;49.248;6.968;2023-05-23T02:21:18;15.60;99.90
27978;DHT22;15314;49.248;6.968;2023-05-23T02:22:22;15.70;99.90
27978;DHT22;15314;49.248;6.968;2023-05-23T02:23:24;15.70;99.90
27978;DHT22;15314;49.248;6.968;2023-05-23T02:24:25;15.70;99.90
27978;DHT22;15314;49.248;6.968;2023-05-23T02:25:25;15.70;99.90
27978;DHT22;15314;49.248;6.968;2023-05-23T02:26:26;15.60;99.90
27978;DHT22;15314;49.248;6.968;2023-05-23T02:27:27;15.50;99.90
27978;DHT22;15314;49.248;6.968;2023-05-23T02:28:28;15.50;99.90
27978;DHT22;15314;49.248;6.968;2023-05-23T02:29:28;15.50;99.90
27978;DHT22;15314;49.248;6.968;2023-05-23T02:30:29;15.40;99.90
27978;DHT22;15314;49.248;6.968;2023-05-23T02:31:30;15.40;99.90
27978;DHT22;15314;49.248;6.968;2023-05-23T02:32:30;15.40;99.90
27978;DHT22;15314;49.248;6.968;2023-05-23T02:33:31;15.40;99.90
27978;DHT22;15314;49.248;6.968;2023-05-23T02:34:32;15.40;99.90
27978;DHT22;15314;49.248;6.968;2023-05-23T02:35:33;15.40;99.90
27978;DHT22;15314;49.248;6.968;2023-05-23T02:36:33;15.40;99.90
27978;DHT22;15314;49.248;6.968;2023-05-23T02:37:36;15.40;99.90
27978;DHT22;15314;49.248;6.968;2023-05-23T02:38:37;15.40;99.90
27978;DHT22;15314;49.248;6.968;2023-05-23T02:39:37;15.40;99.90
27978;DHT22;15314;49.248;6.968;2023-05-23T02:40:38;15.40;99.90
27978;DHT22;15314;49.248;6.968;2023-05-23T02:41:38;15.40;99.90
27978;DHT22;15314;49.248;6.968;2023-05-23T02:42:39;15.40;99.90
27978;DHT22;15314;49.248;6.968;2023-05-23T02:43:40;15.30;99.90
27978;DHT22;15314;49.248;6.968;2023-05-23T02:44:40;15.30;99.90
27978;DHT22;15314;49.248;6.968;2023-05-23T02:45:41;15.30;99.90
27978;DHT22;15314;49.248;6.968;2023-05-23T02:46:42;15.30;99.90
27978;DHT22;15314;49.248;6.968;2023-05-23T02:47:42;15.40;99.90
27978;DHT22;15314;49.248;6.968;2023-05-23T02:48:43;15.30;99.90
27978;DHT22;15314;49.248;6.968;2023-05-23T02:49:44;15.40;99.90
27978;DHT22;15314;49.248;6.968;2023-05-23T02:50:45;15.40;99.90
27978;DHT22;15314;49.248;6.968;2023-05-23T02:51:45;15.30;99.90
27978;DHT22;15314;49.248;6.968;2023-05-23T02:52:46;15.30;99.90
27978;DHT22;15314;49.248;6.968;2023-05-23T02:53:47;15.30;99.90
27978;DHT22;15314;49.248;6.968;2023-05-23T02:54:47;15.30;99.90
27978;DHT22;15314;49.248;6.968;2023-05-23T02:55:48;15.30;99.90
27978;DHT22;15314;49.248;6.968;2023-05-23T02:56:48;15.30;99.90
27978;DHT22;15314;49.248;6.968;2023-05-23T02:57:51;15.20;99.90
27978;DHT22;15314;49.248;6.968;2023-05-23T02:58:52;15.20;99.90
27978;DHT22;15314;49.248;6.968;2023-05-23T02:59:52;15.20;99.90
27978;DHT22;15314;49.248;6.968;2023-05-23T03:00:53;15.20;99.90
27978;DHT22;15314;49.248;6.968;2023-05-23T03:01:54;15.20;99.90
27978;DHT22;15314;49.248;6.968;2023-05-23T03:02:55;15.20;99.90
27978;DHT22;15314;49.248;6.968;2023-05-23T03:03:56;15.20;99.90
27978;DHT22;15314;49.248;6.968;2023-05-23T03:04:57;15.20;99.90
27978;DHT22;15314;49.248;6.968;2023-05-23T03:05:57;15.10;99.90
27978;DHT22;15314;49.248;6.968;2023-05-23T03:06:58;15.10;99.90
27978;DHT22;15314;49.248;6.968;2023-05-23T03:07:59;15.10;99.90
27978;DHT22;15314;49.248;6.968;2023-05-23T03:09:00;15.20;99.90
27978;DHT22;15314;49.248;6.968;2023-05-23T03:10:00;15.20;99.90
27978;DHT22;15314;49.248;6.968;2023-05-23T03:11:01;15.20;99.90
27978;DHT22;15314;49.248;6.968;2023-05-23T03:12:02;15.20;99.90
27978;DHT22;15314;49.248;6.968;2023-05-23T03:13:03;15.10;99.90
27978;DHT22;15314;49.248;6.968;2023-05-23T03:14:04;15.10;99.90
27978;DHT22;15314;49.248;6.968;2023-05-23T03:15:05;15.10;99.90
27978;DHT22;15314;49.248;6.968;2023-05-23T03:16:06;15.10;99.90
27978;DHT22;15314;49.248;6.968;2023-05-23T03:17:06;15.20;99.90
27978;DHT22;15314;49.248;6.968;2023-05-23T03:18:07;15.20;99.90
27978;DHT22;15314;49.248;6.968;2023-05-23T03:19:07;15.10;99.90
27978;DHT22;15314;49.248;6.968;2023-05-23T03:20:09;15.10;99.90
27978;DHT22;15314;49.248;6.968;2023-05-23T03:21:09;15.10;99.90
27978;DHT22;15314;49.248;6.968;2023-05-23T03:22:10;15.10;99.90
27978;DHT22;15314;49.248;6.968;2023-05-23T03:23:11;15.10;99.90
27978;DHT22;15314;49.248;6.968;2023-05-23T03:24:11;15.10;99.90
27978;DHT22;15314;49.248;6.968;2023-05-23T03:25:14;15.10;99.90
27978;DHT22;15314;49.248;6.968;2023-05-23T03:26:15;15.10;99.90
27978;DHT22;15314;49.248;6.968;2023-05-23T03:27:16;15.10;99.90
27978;DHT22;15314;49.248;6.968;2023-05-23T03:28:16;15.10;99.90
27978;DHT22;15314;49.248;6.968;2023-05-23T03:29:17;15.00;99.90
27978;DHT22;15314;49.248;6.968;2023-05-23T03:30:18;15.00;99.90
27978;DHT22;15314;49.248;6.968;2023-05-23T03:31:18;15.00;99.90
27978;DHT22;15314;49.248;6.968;2023-05-23T03:32:19;15.00;99.90
27978;DHT22;15314;49.248;6.968;2023-05-23T03:33:20;15.00;99.90
27978;DHT22;15314;49.248;6.968;2023-05-23T03:34:20;15.00;99.90
27978;DHT22;15314;49.248;6.968;2023-05-23T03:35:23;15.00;99.90
27978;DHT22;15314;49.248;6.968;2023-05-23T03:36:23;14.90;99.90
27978;DHT22;15314;49.248;6.968;2023-05-23T03:37:27;15.00;99.90
27978;DHT22;15314;49.248;6.968;2023-05-23T03:38:28;14.90;99.90
27978;DHT22;15314;49.248;6.968;2023-05-23T03:39:28;15.00;99.90
27978;DHT22;15314;49.248;6.968;2023-05-23T03:40:30;15.00;99.90
27978;DHT22;15314;49.248;6.968;2023-05-23T03:41:30;15.00;99.90
27978;DHT22;15314;49.248;6.968;2023-05-23T03:42:31;15.00;99.90
27978;DHT22;15314;49.248;6.968;2023-05-23T03:43:32;15.00;99.90
27978;DHT22;15314;49.248;6.968;2023-05-23T03:44:32;15.00;99.90
27978;DHT22;15314;49.248;6.968;2023-05-23T03:45:33;15.10;99.90
27978;DHT22;15314;49.248;6.968;2023-05-23T03:46:34;15.10;99.90
27978;DHT22;15314;49.248;6.968;2023-05-23T03:47:35;15.00;99.90
27978;DHT22;15314;49.248;6.968;2023-05-23T03:48:36;15.10;99.90
27978;DHT22;15314;49.248;6.968;2023-05-23T03:49:36;15.00;99.90
27978;DHT22;15314;49.248;6.968;2023-05-23T03:50:38;15.00;99.90
27978;DHT22;15314;49.248;6.968;2023-05-23T03:51:39;15.00;99.90
27978;DHT22;15314;49.248;6.968;2023-05-23T03:52:40;15.00;99.90
27978;DHT22;15314;49.248;6.968;2023-05-23T03:53:40;15.00;99.90
27978;DHT22;15314;49.248;6.968;2023-05-23T03:54:41;15.10;99.90
27978;DHT22;15314;49.248;6.968;2023-05-23T03:55:42;15.10;99.90
27978;DHT22;15314;49.248;6.968;2023-05-23T03:56:42;15.10;99.90
27978;DHT22;15314;49.248;6.968;2023-05-23T03:57:43;15.10;99.90
27978;DHT22;15314;49.248;6.968;2023-05-23T03:58:44;15.10;99.90
27978;DHT22;15314;49.248;6.968;2023-05-23T03:59:45;15.10;99.90
27978;DHT22;15314;49.248;6.968;2023-05-23T04:00:46;15.10;99.90
27978;DHT22;15314;49.248;6.968;2023-05-23T04:01:46;15.10;99.90
27978;DHT22;15314;49.248;6.968;2023-05-23T04:02:47;15.10;99.90
27978;DHT22;15314;49.248;6.968;2023-05-23T04:03:49;15.10;99.90
27978;DHT22;15314;49.248;6.968;2023-05-23T04:04:50;15.20;99.90
27978;DHT22;15314;49.248;6.968;2023-05-23T04:05:53;15.20;99.90
27978;DHT22;15314;49.248;6.968;2023-05-23T04:06:54;15.20;99.90
27978;DHT22;15314;49.248;6.968;2023-05-23T04:07:55;15.20;99.90
27978;DHT22;15314;49.248;6.968;2023-05-23T04:08:56;15.20;99.90
27978;DHT22;15314;49.248;6.968;2023-05-23T04:09:57;15.20;99.90
27978;DHT22;15314;49.248;6.968;2023-05-23T04:10:57;15.20;99.90
27978;DHT22;15314;49.248;6.968;2023-05-23T04:11:58;15.20;99.90
27978;DHT22;15314;49.248;6.968;2023-05-23T04:12:58;15.20;99.90
27978;DHT22;15314;49.248;6.968;2023-05-23T04:13:59;15.20;99.90
27978;DHT22;15314;49.248;6.968;2023-05-23T04:15:01;15.20;99.90
27978;DHT22;15314;49.248;6.968;2023-05-23T04:16:03;15.20;99.90
27978;DHT22;15314;49.248;6.968;2023-05-23T04:17:05;15.20;99.90
27978;DHT22;15314;49.248;6.968;2023-05-23T04:18:08;15.30;99.90
27978;DHT22;15314;49.248;6.968;2023-05-23T04:19:09;15.30;99.90
27978;DHT22;15314;49.248;6.968;2023-05-23T04:20:10;15.30;99.90
27978;DHT22;15314;49.248;6.968;2023-05-23T04:21:10;15.40;99.90
27978;DHT22;15314;49.248;6.968;2023-05-23T04:22:11;15.40;99.90
27978;DHT22;15314;49.248;6.968;2023-05-23T04:23:12;15.40;99.90
27978;DHT22;15314;49.248;6.968;2023-05-23T04:24:12;15.40;99.90
27978;DHT22;15314;49.248;6.968;2023-05-23T04:25:13;15.40;99.90
27978;DHT22;15314;49.248;6.968;2023-05-23T04:26:14;15.40;99.90
27978;DHT22;15314;49.248;6.968;2023-05-23T04:27:14;15.40;99.90
27978;DHT22;15314;49.248;6.968;2023-05-23T04:28:15;15.40;99.90
27978;DHT22;15314;49.248;6.968;2023-05-23T04:29:17;15.50;99.90
27978;DHT22;15314;49.248;6.968;2023-05-23T04:30:18;15.50;99.90
27978;DHT22;15314;49.248;6.968;2023-05-23T04:31:20;15.50;99.90
27978;DHT22;15314;49.248;6.968;2023-05-23T04:32:21;15.50;99.90
27978;DHT22;15314;49.248;6.968;2023-05-23T04:33:22;15.60;99.90
27978;DHT22;15314;49.248;6.968;2023-05-23T04:34:22;15.60;99.90
27978;DHT22;15314;49.248;6.968;2023-05-23T04:35:23;15.60;99.90
27978;DHT22;15314;49.248;6.968;2023-05-23T04:36:24;15.60;99.90
27978;DHT22;15314;49.248;6.968;2023-05-23T04:37:25;15.70;99.90
27978;DHT22;15314;49.248;6.968;2023-05-23T04:38:25;15.70;99.90
27978;DHT22;15314;49.248;6.968;2023-05-23T04:39:27;15.70;99.90
27978;DHT22;15314;49.248;6.968;2023-05-23T04:40:29;15.70;99.90
27978;DHT22;15314;49.248;6.968;2023-05-23T04:41:30;15.70;99.90
27978;DHT22;15314;49.248;6.968;2023-05-23T04:42:31;15.70;99.90
27978;DHT22;15314;49.248;6.968;2023-05-23T04:43:32;15.70;99.90
27978;DHT22;15314;49.248;6.968;2023-05-23T04:44:33;15.70;99.90
27978;DHT22;15314;49.248;6.968;2023-05-23T04:45:36;15.80;99.90
27978;DHT22;15314;49.248;6.968;2023-05-23T04:46:37;15.80;99.90
27978;DHT22;15314;49.248;6.968;2023-05-23T04:47:41;15.80;99.90
27978;DHT22;15314;49.248;6.968;2023-05-23T04:48:44;15.80;99.90
27978;DHT22;15314;49.248;6.968;2023-05-23T04:49:45;15.90;99.90
27978;DHT22;15314;49.248;6.968;2023-05-23T04:50:45;15.90;99.90
27978;DHT22;15314;49.248;6.968;2023-05-23T04:51:47;15.90;99.90
27978;DHT22;15314;49.248;6.968;2023-05-23T04:52:48;16.00;99.90
27978;DHT22;15314;49.248;6.968;2023-05-23T04:53:49;16.00;99.90
27978;DHT22;15314;49.248;6.968;2023-05-23T04:54:50;16.00;99.90
27978;DHT22;15314;49.248;6.968;2023-05-23T04:55:53;16.10;99.90
27978;DHT22;15314;49.248;6.968;2023-05-23T04:56:53;16.10;99.90
27978;DHT22;15314;49.248;6.968;2023-05-23T04:57:54;16.20;99.90
27978;DHT22;15314;49.248;6.968;2023-05-23T04:58:55;16.20;99.90
27978;DHT22;15314;49.248;6.968;2023-05-23T04:59:56;16.30;99.90
27978;DHT22;15314;49.248;6.968;2023-05-23T05:00:57;16.30;99.90
27978;DHT22;15314;49.248;6.968;2023-05-23T05:01:58;16.40;99.90
27978;DHT22;15314;49.248;6.968;2023-05-23T05:02:58;16.50;99.90
27978;DHT22;15314;49.248;6.968;2023-05-23T05:03:59;16.60;99.90
27978;DHT22;15314;49.248;6.968;2023-05-23T05:05:00;16.70;99.90
27978;DHT22;15314;49.248;6.968;2023-05-23T05:06:01;16.70;99.90
27978;DHT22;15314;49.248;6.968;2023-05-23T05:07:02;16.90;99.90
27978;DHT22;15314;49.248;6.968;2023-05-23T05:08:03;16.90;99.90
27978;DHT22;15314;49.248;6.968;2023-05-23T05:09:03;17.00;99.90
27978;DHT22;15314;49.248;6.968;2023-05-23T05:10:04;17.00;99.90
27978;DHT22;15314;49.248;6.968;2023-05-23T05:11:05;17.00;99.90
27978;DHT22;15314;49.248;6.968;2023-05-23T05:12:06;17.10;99.90
27978;DHT22;15314;49.248;6.968;2023-05-23T05:13:06;17.10;99.90
27978;DHT22;15314;49.248;6.968;2023-05-23T05:14:07;17.00;99.90
27978;DHT22;15314;49.248;6.968;2023-05-23T05:15:08;17.00;99.90
27978;DHT22;15314;49.248;6.968;2023-05-23T05:16:09;17.00;99.90
27978;DHT22;15314;49.248;6.968;2023-05-23T05:17:10;17.00;99.90
27978;DHT22;15314;49.248;6.968;2023-05-23T05:18:10;17.00;99.90
27978;DHT22;15314;49.248;6.968;2023-05-23T05:19:11;16.90;99.90
27978;DHT22;15314;49.248;6.968;2023-05-23T05:20:12;17.00;99.90
27978;DHT22;15314;49.248;6.968;2023-05-23T05:21:13;17.00;99.90
27978;DHT22;15314;49.248;6.968;2023-05-23T05:22:13;17.00;99.90
27978;DHT22;15314;49.248;6.968;2023-05-23T05:23:14;17.00;99.90
27978;DHT22;15314;49.248;6.968;2023-05-23T05:24:15;17.00;99.90
27978;DHT22;15314;49.248;6.968;2023-05-23T05:25:16;17.10;99.90
27978;DHT22;15314;49.248;6.968;2023-05-23T05:26:16;17.10;99.90
27978;DHT22;15314;49.248;6.968;2023-05-23T05:27:17;17.20;99.90
27978;DHT22;15314;49.248;6.968;2023-05-23T05:28:18;17.20;99.90
27978;DHT22;15314;49.248;6.968;2023-05-23T05:29:18;17.30;99.90
27978;DHT22;15314;49.248;6.968;2023-05-23T05:30:19;17.30;99.90
27978;DHT22;15314;49.248;6.968;2023-05-23T05:31:19;17.30;99.90
27978;DHT22;15314;49.248;6.968;2023-05-23T05:32:20;17.40;99.90
27978;DHT22;15314;49.248;6.968;2023-05-23T05:33:21;17.50;99.90
27978;DHT22;15314;49.248;6.968;2023-05-23T05:34:25;17.60;99.90
27978;DHT22;15314;49.248;6.968;2023-05-23T05:35:26;17.60;99.90
27978;DHT22;15314;49.248;6.968;2023-05-23T05:36:26;17.70;99.90
27978;DHT22;15314;49.248;6.968;2023-05-23T05:37:27;17.70;99.90
27978;DHT22;15314;49.248;6.968;2023-05-23T05:38:28;17.80;99.90
27978;DHT22;15314;49.248;6.968;2023-05-23T05:39:29;17.80;99.90
27978;DHT22;15314;49.248;6.968;2023-05-23T05:40:33;17.80;99.90
27978;DHT22;15314;49.248;6.968;2023-05-23T05:41:33;17.90;99.90
27978;DHT22;15314;49.248;6.968;2023-05-23T05:42:34;18.00;99.90
27978;DHT22;15314;49.248;6.968;2023-05-23T05:43:35;18.10;99.90
27978;DHT22;15314;49.248;6.968;2023-05-23T05:44:35;18.20;99.90
27978;DHT22;15314;49.248;6.968;2023-05-23T05:45:36;18.20;99.90
27978;DHT22;15314;49.248;6.968;2023-05-23T05:46:37;18.40;99.90
27978;DHT22;15314;49.248;6.968;2023-05-23T05:47:37;18.40;99.90
27978;DHT22;15314;49.248;6.968;2023-05-23T05:48:38;18.50;99.90
27978;DHT22;15314;49.248;6.968;2023-05-23T05:49:38;18.60;99.90
27978;DHT22;15314;49.248;6.968;2023-05-23T05:50:39;18.70;99.90
27978;DHT22;15314;49.248;6.968;2023-05-23T05:51:40;18.90;99.90
27978;DHT22;15314;49.248;6.968;2023-05-23T05:52:41;19.00;99.90
27978;DHT22;15314;49.248;6.968;2023-05-23T05:53:41;19.00;99.90
27978;DHT22;15314;49.248;6.968;2023-05-23T05:54:42;18.90;99.90
27978;DHT22;15314;49.248;6.968;2023-05-23T05:55:43;18.90;99.90
27978;DHT22;15314;49.248;6.968;2023-05-23T05:56:43;18.90;99.90
27978;DHT22;15314;49.248;6.968;2023-05-23T05:57:44;18.90;99.90
27978;DHT22;15314;49.248;6.968;2023-05-23T05:58:44;19.00;99.90
27978;DHT22;15314;49.248;6.968;2023-05-23T05:59:45;18.90;99.90
27978;DHT22;15314;49.248;6.968;2023-05-23T06:00:47;19.00;99.90
27978;DHT22;15314;49.248;6.968;2023-05-23T06:01:48;19.10;99.90
27978;DHT22;15314;49.248;6.968;2023-05-23T06:02:50;19.20;99.90
27978;DHT22;15314;49.248;6.968;2023-05-23T06:03:51;19.20;99.90
27978;DHT22;15314;49.248;6.968;2023-05-23T06:04:52;19.30;99.90
27978;DHT22;15314;49.248;6.968;2023-05-23T06:05:52;19.20;99.90
27978;DHT22;15314;49.248;6.968;2023-05-23T06:06:53;19.20;99.90
27978;DHT22;15314;49.248;6.968;2023-05-23T06:07:53;19.10;99.90
27978;DHT22;15314;49.248;6.968;2023-05-23T06:08:54;19.20;99.90
27978;DHT22;15314;49.248;6.968;2023-05-23T06:09:55;19.30;99.90
27978;DHT22;15314;49.248;6.968;2023-05-23T06:10:55;19.30;99.90
27978;DHT22;15314;49.248;6.968;2023-05-23T06:11:56;19.30;99.90
27978;DHT22;15314;49.248;6.968;2023-05-23T06:12:57;19.40;99.90
27978;DHT22;15314;49.248;6.968;2023-05-23T06:13:59;19.60;99.90
27978;DHT22;15314;49.248;6.968;2023-05-23T06:14:59;19.80;99.90
27978;DHT22;15314;49.248;6.968;2023-05-23T06:16:00;20.00;99.90
27978;DHT22;15314;49.248;6.968;2023-05-23T06:17:02;20.10;99.90
27978;DHT22;15314;49.248;6.968;2023-05-23T06:18:02;20.00;99.90
27978;DHT22;15314;49.248;6.968;2023-05-23T06:19:03;20.00;99.90
27978;DHT22;15314;49.248;6.968;2023-05-23T06:20:04;20.00;99.90
27978;DHT22;15314;49.248;6.968;2023-05-23T06:21:05;20.20;99.90
27978;DHT22;15314;49.248;6.968;2023-05-23T06:22:06;20.20;99.90
27978;DHT22;15314;49.248;6.968;2023-05-23T06:23:06;20.30;99.90
27978;DHT22;15314;49.248;6.968;2023-05-23T06:24:08;20.30;99.90
27978;DHT22;15314;49.248;6.968;2023-05-23T06:25:08;20.20;99.90
27978;DHT22;15314;49.248;6.968;2023-05-23T06:26:09;20.30;99.90
27978;DHT22;15314;49.248;6.968;2023-05-23T06:27:10;20.30;99.90
27978;DHT22;15314;49.248;6.968;2023-05-23T06:28:10;20.40;99.90
27978;DHT22;15314;49.248;6.968;2023-05-23T06:29:12;20.20;99.90
27978;DHT22;15314;49.248;6.968;2023-05-23T06:30:13;20.20;99.90
27978;DHT22;15314;49.248;6.968;2023-05-23T06:31:13;20.10;99.90
27978;DHT22;15314;49.248;6.968;2023-05-23T06:32:14;19.80;99.90
27978;DHT22;15314;49.248;6.968;2023-05-23T06:33:15;19.80;99.90